Time;durP1;ratioP1;P1;durP2;ratioP2;P2;SDS_P1;SDS_P2;PMS_P1;PMS_P2;Temp;Humidity;BMP_temperature;BMP_pressure;BME280_temperature;BME280_humidity;BME280_pressure;Samples;Min_cycle;Max_cycle;Signal;HPM_P1;HPM_P2
2021/05/19 00:02:28;;;;;;;;;;;13.30;82.10;;;;;;4346057;33;43247;-76
2021/05/19 00:05:03;;;;;;;;;;;13.30;82.10;;;;;;4333407;33;45944;-76
2021/05/19 00:07:31;;;;;;;;;;;13.30;82.20;;;;;;4346767;33;43871;-76
2021/05/19 00:09:58;;;;;;;;;;;13.20;82.10;;;;;;4346054;33;42587;-76
2021/05/19 00:12:30;;;;;;;;;;;13.30;82.30;;;;;;4346096;33;43675;-76
2021/05/19 00:15:01;;;;;;;;;;;13.20;82.20;;;;;;4347129;33;21179;-76
2021/05/19 00:17:42;;;;;;;;;;;13.20;82.20;;;;;;4334156;33;20039;-76
2021/05/19 00:20:15;;;;;;;;;;;13.20;82.30;;;;;;4345904;33;44176;-76
2021/05/19 00:22:43;;;;;;;;;;;13.10;82.40;;;;;;4333045;33;43742;-76
2021/05/19 00:25:11;;;;;;;;;;;13.10;82.60;;;;;;4345983;33;43666;-77
2021/05/19 00:27:38;;;;;;;;;;;13.00;82.70;;;;;;4332377;33;43755;-76
2021/05/19 00:30:12;;;;;;;;;;;13.00;82.70;;;;;;4332945;33;43986;-76
2021/05/19 00:32:40;;;;;;;;;;;13.00;82.80;;;;;;4333077;33;43673;-76
2021/05/19 00:35:10;;;;;;;;;;;13.00;82.80;;;;;;4345904;33;43720;-76
2021/05/19 00:37:45;;;;;;;;;;;12.90;82.80;;;;;;4333246;33;43700;-76
2021/05/19 00:40:15;;;;;;;;;;;12.90;82.90;;;;;;4345967;33;42923;-76
2021/05/19 00:42:42;;;;;;;;;;;12.80;83.10;;;;;;4345393;33;42854;-76
2021/05/19 00:45:13;;;;;;;;;;;12.80;83.20;;;;;;4345753;33;43133;-76
2021/05/19 00:47:44;;;;;;;;;;;12.70;83.30;;;;;;4346931;33;20468;-76
2021/05/19 00:50:21;;;;;;;;;;;12.70;83.50;;;;;;4332624;33;45688;-76
2021/05/19 00:52:54;;;;;;;;;;;12.70;83.60;;;;;;4345518;33;43700;-76
2021/05/19 00:55:21;;;;;;;;;;;12.70;83.70;;;;;;4345417;33;43269;-76
2021/05/19 00:57:50;;;;;;;;;;;12.60;83.60;;;;;;4345374;33;44856;-76
2021/05/19 01:00:18;;;;;;;;;;;12.60;83.70;;;;;;4345482;33;43121;-76
2021/05/19 01:02:46;;;;;;;;;;;12.60;83.90;;;;;;4344887;33;45748;-76
2021/05/19 01:05:22;;;;;;;;;;;12.50;84.00;;;;;;4332383;33;42122;-77
2021/05/19 01:10:37;;;;;;;;;;;12.40;84.30;;;;;;4345825;33;43155;-76
2021/05/19 01:13:05;;;;;;;;;;;12.40;84.30;;;;;;4332148;33;43755;-76
2021/05/19 01:15:36;;;;;;;;;;;12.40;84.30;;;;;;4332270;33;43974;-76
2021/05/19 01:18:06;;;;;;;;;;;12.40;84.30;;;;;;4346773;33;20319;-76
2021/05/19 01:20:34;;;;;;;;;;;12.40;84.30;;;;;;4331914;33;44196;-76
2021/05/19 01:23:05;;;;;;;;;;;12.40;84.30;;;;;;4345551;33;44910;-76
2021/05/19 01:25:38;;;;;;;;;;;12.50;84.30;;;;;;4345256;33;42623;-76
2021/05/19 01:28:09;;;;;;;;;;;12.40;84.10;;;;;;4332252;33;44401;-76
2021/05/19 01:30:36;;;;;;;;;;;12.40;84.00;;;;;;4345349;33;42886;-76
2021/05/19 01:33:03;;;;;;;;;;;12.40;84.10;;;;;;4331834;33;42970;-76
2021/05/19 01:35:32;;;;;;;;;;;12.30;84.10;;;;;;4345487;33;43771;-76
2021/05/19 01:38:04;;;;;;;;;;;12.40;84.30;;;;;;4345417;33;44294;-76
2021/05/19 01:40:37;;;;;;;;;;;12.30;84.20;;;;;;4332539;33;44199;-76
2021/05/19 01:43:14;;;;;;;;;;;12.40;84.30;;;;;;4332385;33;43696;-76
2021/05/19 01:45:44;;;;;;;;;;;12.40;84.30;;;;;;4345582;33;42945;-77
2021/05/19 01:48:15;;;;;;;;;;;12.40;84.40;;;;;;4332658;33;20485;-76
2021/05/19 01:50:43;;;;;;;;;;;12.30;84.40;;;;;;4332345;33;43666;-76
2021/05/19 01:53:16;;;;;;;;;;;12.20;84.60;;;;;;4345312;33;43011;-77
2021/05/19 01:55:46;;;;;;;;;;;12.20;84.90;;;;;;4332369;33;43602;-77
2021/05/19 01:58:16;;;;;;;;;;;12.10;85.10;;;;;;4345236;33;43854;-77
2021/05/19 02:00:44;;;;;;;;;;;12.10;85.00;;;;;;4344927;33;42561;-76
2021/05/19 02:03:13;;;;;;;;;;;12.20;85.10;;;;;;4333698;33;43048;-76
2021/05/19 02:05:47;;;;;;;;;;;12.20;84.90;;;;;;4347953;33;44644;-77
2021/05/19 02:08:17;;;;;;;;;;;12.20;84.80;;;;;;4348061;33;43011;-77
2021/05/19 02:10:52;;;;;;;;;;;12.20;84.80;;;;;;4347706;33;42576;-76
2021/05/19 02:13:19;;;;;;;;;;;12.20;84.60;;;;;;4348145;33;43619;-77
2021/05/19 02:15:56;;;;;;;;;;;12.20;84.70;;;;;;4347687;33;43024;-76
2021/05/19 02:18:29;;;;;;;;;;;12.20;84.80;;;;;;4335924;33;20001;-76
2021/05/19 02:21:08;;;;;;;;;;;12.10;84.90;;;;;;4347948;33;43206;-76
2021/05/19 02:23:38;;;;;;;;;;;12.10;85.00;;;;;;4347703;33;42247;-76
2021/05/19 02:26:07;;;;;;;;;;;12.00;85.10;;;;;;4347609;33;43718;-76
2021/05/19 02:28:34;;;;;;;;;;;12.00;85.20;;;;;;4347628;33;42635;-77
2021/05/19 02:31:03;;;;;;;;;;;12.00;85.30;;;;;;4347761;33;43096;-77
2021/05/19 02:33:30;;;;;;;;;;;11.90;85.40;;;;;;4334071;33;43086;-77
2021/05/19 02:35:58;;;;;;;;;;;11.90;85.40;;;;;;4334294;33;43769;-77
2021/05/19 02:38:35;;;;;;;;;;;11.90;85.30;;;;;;4347836;33;43714;-77
2021/05/19 02:41:05;;;;;;;;;;;11.90;85.30;;;;;;4347625;33;44884;-77
2021/05/19 02:43:38;;;;;;;;;;;11.90;85.30;;;;;;4347492;33;42892;-77
2021/05/19 02:46:05;;;;;;;;;;;11.90;85.40;;;;;;4347347;33;42876;-77
2021/05/19 02:48:32;;;;;;;;;;;11.90;85.40;;;;;;4335406;33;20039;-77
2021/05/19 02:51:02;;;;;;;;;;;11.90;85.30;;;;;;4347348;33;43020;-77
2021/05/19 02:53:32;;;;;;;;;;;11.90;85.10;;;;;;4347294;33;43692;-77
2021/05/19 02:56:03;;;;;;;;;;;11.90;85.00;;;;;;4347590;33;42863;-78
2021/05/19 02:58:34;;;;;;;;;;;11.90;84.90;;;;;;4347396;33;44016;-78
2021/05/19 03:01:06;;;;;;;;;;;11.90;84.90;;;;;;4333975;33;44169;-78
2021/05/19 03:03:36;;;;;;;;;;;11.80;84.90;;;;;;4347002;33;44191;-77
2021/05/19 03:06:06;;;;;;;;;;;11.80;85.10;;;;;;4333665;33;42490;-77
2021/05/19 03:08:36;;;;;;;;;;;11.80;85.10;;;;;;4347228;33;43667;-77
2021/05/19 03:11:09;;;;;;;;;;;11.80;85.00;;;;;;4334182;33;42879;-77
2021/05/19 03:13:37;;;;;;;;;;;11.80;84.90;;;;;;4346265;33;43471;-77
2021/05/19 03:16:06;;;;;;;;;;;11.80;84.90;;;;;;4333961;33;43051;-77
2021/05/19 03:18:37;;;;;;;;;;;11.80;84.80;;;;;;4348146;33;20464;-77
2021/05/19 03:21:07;;;;;;;;;;;11.70;84.60;;;;;;4333920;33;43700;-77
2021/05/19 03:23:34;;;;;;;;;;;11.80;84.70;;;;;;4346918;33;43119;-77
2021/05/19 03:26:05;;;;;;;;;;;11.80;84.50;;;;;;4347118;33;44356;-77
2021/05/19 03:28:32;;;;;;;;;;;11.80;84.40;;;;;;4333453;33;43526;-77
2021/05/19 03:31:02;;;;;;;;;;;11.70;84.20;;;;;;4333126;33;44773;-77
2021/05/19 03:33:30;;;;;;;;;;;11.70;84.20;;;;;;4346927;33;43812;-78
2021/05/19 03:36:00;;;;;;;;;;;11.70;84.10;;;;;;4346776;33;42445;-77
2021/05/19 03:38:28;;;;;;;;;;;11.70;84.00;;;;;;4333799;33;43772;-77
2021/05/19 03:40:58;;;;;;;;;;;11.70;84.00;;;;;;4346650;33;43755;-78
2021/05/19 03:43:27;;;;;;;;;;;11.60;83.80;;;;;;4346561;33;43963;-77
2021/05/19 03:45:56;;;;;;;;;;;11.60;83.90;;;;;;4333316;33;43694;-77
2021/05/19 03:48:24;;;;;;;;;;;11.60;84.00;;;;;;4333532;33;43118;-78
2021/05/19 03:50:53;;;;;;;;;;;11.50;84.10;;;;;;4348064;33;20007;-78
2021/05/19 03:53:23;;;;;;;;;;;11.50;84.10;;;;;;4346817;33;43023;-77
2021/05/19 03:55:56;;;;;;;;;;;11.40;84.20;;;;;;4346255;33;44291;-77
2021/05/19 03:58:31;;;;;;;;;;;11.40;84.00;;;;;;4346595;33;44435;-77
2021/05/19 04:00:58;;;;;;;;;;;11.40;84.10;;;;;;4346547;33;43132;-78
2021/05/19 04:03:25;;;;;;;;;;;11.50;84.00;;;;;;4346051;33;43600;-78
2021/05/19 04:05:55;;;;;;;;;;;11.50;83.90;;;;;;4332874;33;43002;-77
2021/05/19 04:08:34;;;;;;;;;;;11.50;83.90;;;;;;4346083;33;43632;-77
2021/05/19 04:11:02;;;;;;;;;;;11.50;83.80;;;;;;4346320;33;42847;-77
2021/05/19 04:13:32;;;;;;;;;;;11.50;83.80;;;;;;4333111;33;43765;-78
2021/05/19 04:16:06;;;;;;;;;;;11.50;83.80;;;;;;4345894;33;43023;-77
2021/05/19 04:18:36;;;;;;;;;;;11.40;83.90;;;;;;4332760;33;42843;-77
2021/05/19 04:21:07;;;;;;;;;;;11.40;84.10;;;;;;4347385;33;20010;-77
2021/05/19 04:23:35;;;;;;;;;;;11.30;84.10;;;;;;4332939;33;42753;-77
2021/05/19 04:26:02;;;;;;;;;;;11.30;84.20;;;;;;4345830;33;45809;-77
2021/05/19 04:28:32;;;;;;;;;;;11.30;84.40;;;;;;4332356;33;43915;-76
2021/05/19 04:31:02;;;;;;;;;;;11.20;84.50;;;;;;4345972;33;42199;-77
2021/05/19 04:33:35;;;;;;;;;;;11.20;84.60;;;;;;4345832;33;43672;-77
2021/05/19 04:36:02;;;;;;;;;;;11.20;84.70;;;;;;4346153;33;43857;-77
2021/05/19 04:38:32;;;;;;;;;;;11.20;84.70;;;;;;4345910;33;42891;-77
2021/05/19 04:41:04;;;;;;;;;;;11.20;84.80;;;;;;4345918;33;43479;-78
2021/05/19 04:43:31;;;;;;;;;;;11.20;84.90;;;;;;4346011;33;43813;-77
2021/05/19 04:45:58;;;;;;;;;;;11.20;85.00;;;;;;4345418;33;43707;-77
2021/05/19 04:48:31;;;;;;;;;;;11.20;85.00;;;;;;4345924;33;43560;-77
2021/05/19 04:51:01;;;;;;;;;;;11.20;85.00;;;;;;4332635;33;42494;-77
2021/05/19 04:53:28;;;;;;;;;;;11.20;85.10;;;;;;4346343;33;20036;-77
2021/05/19 04:55:55;;;;;;;;;;;11.20;85.10;;;;;;4345406;33;42888;-77
2021/05/19 04:58:26;;;;;;;;;;;11.10;85.10;;;;;;4345476;33;43101;-77
2021/05/19 05:00:54;;;;;;;;;;;11.10;85.40;;;;;;4332344;33;44203;-77
2021/05/19 05:03:21;;;;;;;;;;;11.10;85.40;;;;;;4345334;33;43169;-77
2021/05/19 05:05:54;;;;;;;;;;;11.10;85.50;;;;;;4345559;33;43487;-77
2021/05/19 05:08:24;;;;;;;;;;;11.10;85.60;;;;;;4345309;33;42634;-76
2021/05/19 05:10:55;;;;;;;;;;;11.10;85.70;;;;;;4332986;33;43711;-77
2021/05/19 05:13:23;;;;;;;;;;;11.00;86.00;;;;;;4345358;33;43541;-77
2021/05/19 05:15:51;;;;;;;;;;;11.00;86.10;;;;;;4332109;33;44865;-77
2021/05/19 05:18:19;;;;;;;;;;;11.00;86.10;;;;;;4345417;33;43774;-76
2021/05/19 05:20:49;;;;;;;;;;;11.00;86.40;;;;;;4345749;33;43208;-77
2021/05/19 05:23:19;;;;;;;;;;;11.00;86.40;;;;;;4345258;33;43754;-77
2021/05/19 05:25:46;;;;;;;;;;;11.00;86.50;;;;;;4346511;33;20005;-77
2021/05/19 05:28:13;;;;;;;;;;;11.10;86.60;;;;;;4332327;33;42915;-77
2021/05/19 05:30:45;;;;;;;;;;;11.10;86.50;;;;;;4345433;33;42843;-77
2021/05/19 05:33:14;;;;;;;;;;;11.20;86.60;;;;;;4332382;33;44294;-77
2021/05/19 05:35:44;;;;;;;;;;;11.20;86.40;;;;;;4331967;33;43685;-77
2021/05/19 05:38:11;;;;;;;;;;;11.20;86.50;;;;;;4333858;33;43069;-77
2021/05/19 05:40:38;;;;;;;;;;;11.20;86.60;;;;;;4348061;33;44966;-77
2021/05/19 05:43:09;;;;;;;;;;;11.20;86.50;;;;;;4348495;33;43949;-77
2021/05/19 05:45:36;;;;;;;;;;;11.20;86.40;;;;;;4348309;33;43095;-76
2021/05/19 05:48:03;;;;;;;;;;;11.30;86.50;;;;;;4348624;33;43662;-76
2021/05/19 05:50:33;;;;;;;;;;;11.30;86.50;;;;;;4347996;33;43581;-76
2021/05/19 05:53:03;;;;;;;;;;;11.40;86.40;;;;;;4348033;33;43011;-76
2021/05/19 05:55:30;;;;;;;;;;;11.40;86.40;;;;;;4348117;33;42504;-76
2021/05/19 05:57:57;;;;;;;;;;;11.40;87.10;;;;;;4336214;33;20009;-76
2021/05/19 06:00:27;;;;;;;;;;;11.40;86.20;;;;;;4334589;33;43013;-76
2021/05/19 06:02:57;;;;;;;;;;;11.40;86.10;;;;;;4334587;33;45383;-76
2021/05/19 06:05:27;;;;;;;;;;;11.40;86.00;;;;;;4347759;33;43701;-76
2021/05/19 06:07:54;;;;;;;;;;;11.40;86.00;;;;;;4334848;33;43243;-76
2021/05/19 06:10:21;;;;;;;;;;;11.50;86.00;;;;;;4348016;33;42159;-76
2021/05/19 06:12:50;;;;;;;;;;;11.40;86.10;;;;;;4347860;33;43912;-76
2021/05/19 06:15:20;;;;;;;;;;;11.40;86.10;;;;;;4334232;33;45820;-76
2021/05/19 06:17:52;;;;;;;;;;;11.40;86.10;;;;;;4347972;33;43400;-76
2021/05/19 06:20:20;;;;;;;;;;;11.40;86.20;;;;;;4351377;32;42404;-76
2021/05/19 06:22:47;;;;;;;;;;;11.40;86.10;;;;;;4362611;32;43075;-77
2021/05/19 06:25:16;;;;;;;;;;;11.50;86.30;;;;;;4361967;32;44367;-76
2021/05/19 06:27:43;;;;;;;;;;;11.40;86.20;;;;;;4362215;32;42626;-77
2021/05/19 06:30:14;;;;;;;;;;;11.50;86.30;;;;;;4363102;32;20015;-76
2021/05/19 06:32:42;;;;;;;;;;;11.50;86.30;;;;;;4363876;32;20491;-77
2021/05/19 06:35:09;;;;;;;;;;;11.50;86.30;;;;;;4350495;32;20056;-76
2021/05/19 06:37:36;;;;;;;;;;;11.60;86.40;;;;;;4350145;32;20354;-76
2021/05/19 06:40:05;;;;;;;;;;;11.60;86.50;;;;;;4337685;32;19993;-76
2021/05/19 06:42:32;;;;;;;;;;;11.60;86.50;;;;;;4363347;32;20013;-76
2021/05/19 06:44:59;;;;;;;;;;;11.60;86.70;;;;;;4350054;32;20020;-76
2021/05/19 06:47:26;;;;;;;;;;;11.60;86.70;;;;;;4349500;32;20005;-76
2021/05/19 06:49:54;;;;;;;;;;;11.60;86.70;;;;;;4363479;32;20068;-76
2021/05/19 06:52:22;;;;;;;;;;;11.60;86.80;;;;;;4363459;32;20080;-76
2021/05/19 06:54:56;;;;;;;;;;;11.50;86.70;;;;;;4363518;32;20046;-76
2021/05/19 06:57:23;;;;;;;;;;;11.60;86.70;;;;;;4350383;32;20051;-76
2021/05/19 06:59:50;;;;;;;;;;;11.60;86.80;;;;;;4362880;32;20005;-76
2021/05/19 07:02:20;;;;;;;;;;;11.60;86.80;;;;;;4363014;32;20088;-76
2021/05/19 07:04:48;;;;;;;;;;;11.60;86.90;;;;;;4350097;32;20027;-76
2021/05/19 07:07:16;;;;;;;;;;;11.60;86.90;;;;;;4363313;32;20005;-76
2021/05/19 07:09:43;;;;;;;;;;;11.60;86.90;;;;;;4349423;32;20117;-76
2021/05/19 07:12:17;;;;;;;;;;;11.60;87.70;;;;;;4349732;32;20106;-76
2021/05/19 07:14:49;;;;;;;;;;;11.60;87.00;;;;;;4363395;32;20015;-76
2021/05/19 07:17:17;;;;;;;;;;;11.60;87.10;;;;;;4350029;32;20021;-76
2021/05/19 07:19:47;;;;;;;;;;;11.60;87.00;;;;;;4363141;32;20050;-76
2021/05/19 07:22:20;;;;;;;;;;;11.70;87.10;;;;;;4349430;32;20051;-76
2021/05/19 07:24:53;;;;;;;;;;;11.60;86.90;;;;;;4349898;32;20017;-76
2021/05/19 07:27:20;;;;;;;;;;;11.70;87.10;;;;;;4362954;32;20008;-76
2021/05/19 07:29:49;;;;;;;;;;;11.70;86.90;;;;;;4337516;32;20007;-76
2021/05/19 07:32:18;;;;;;;;;;;11.80;87.10;;;;;;4349446;32;20020;-76
2021/05/19 07:34:48;;;;;;;;;;;11.80;87.20;;;;;;4362480;32;20002;-76
2021/05/19 07:37:19;;;;;;;;;;;11.80;87.10;;;;;;4337086;32;20068;-76
2021/05/19 07:39:46;;;;;;;;;;;11.80;87.00;;;;;;4349333;32;20019;-76
2021/05/19 07:42:17;;;;;;;;;;;11.80;87.00;;;;;;4362771;32;20370;-76
2021/05/19 07:44:45;;;;;;;;;;;11.80;87.20;;;;;;4337152;32;20001;-76
2021/05/19 07:47:12;;;;;;;;;;;11.90;87.30;;;;;;4362407;32;20060;-76
2021/05/19 07:49:41;;;;;;;;;;;11.90;87.40;;;;;;4348956;32;20027;-76
2021/05/19 07:52:08;;;;;;;;;;;11.90;87.30;;;;;;4362600;32;20008;-76
2021/05/19 07:54:36;;;;;;;;;;;11.90;87.50;;;;;;4336847;32;20057;-76
2021/05/19 07:58:08;;;;;;;;;;;11.90;87.70;;;;;;4336795;32;20080;-76
2021/05/19 08:00:11;;;;;;;;;;;11.90;88.00;;;;;;4355101;32;20008;-76
2021/05/19 08:02:40;;;;;;;;;;;12.00;87.90;;;;;;4362660;32;20043;-76
2021/05/19 08:05:06;;;;;;;;;;;12.00;87.90;;;;;;4336552;32;20005;-76
2021/05/19 08:07:35;;;;;;;;;;;12.00;87.80;;;;;;4349202;32;20389;-76
2021/05/19 08:10:01;;;;;;;;;;;12.00;87.90;;;;;;4362419;32;20338;-76
2021/05/19 08:12:27;;;;;;;;;;;12.00;87.80;;;;;;4348557;32;20048;-76
2021/05/19 08:14:56;;;;;;;;;;;12.10;87.90;;;;;;4348917;32;20017;-76
2021/05/19 08:17:22;;;;;;;;;;;12.10;87.70;;;;;;4362143;32;20064;-76
2021/05/19 08:19:48;;;;;;;;;;;12.10;87.60;;;;;;4362387;32;20005;-76
2021/05/19 08:22:18;;;;;;;;;;;12.10;87.40;;;;;;4348501;32;20428;-76
2021/05/19 08:24:48;;;;;;;;;;;12.10;87.40;;;;;;4362245;32;20390;-76
2021/05/19 08:27:16;;;;;;;;;;;12.10;87.40;;;;;;4361890;32;20076;-76
2021/05/19 08:29:47;;;;;;;;;;;12.20;87.40;;;;;;4348822;32;20022;-76
2021/05/19 08:32:17;;;;;;;;;;;12.20;87.30;;;;;;4348488;32;20057;-76
2021/05/19 08:34:45;;;;;;;;;;;12.10;87.30;;;;;;4362080;32;20402;-77
2021/05/19 08:37:15;;;;;;;;;;;12.10;87.30;;;;;;4348495;32;20000;-76
2021/05/19 08:39:42;;;;;;;;;;;12.20;87.40;;;;;;4361697;32;20070;-76
2021/05/19 08:42:15;;;;;;;;;;;12.20;87.30;;;;;;4336225;32;20001;-76
2021/05/19 08:44:43;;;;;;;;;;;12.20;87.40;;;;;;4348746;32;20124;-76
2021/05/19 08:47:11;;;;;;;;;;;12.20;87.40;;;;;;4348441;32;20052;-76
2021/05/19 08:49:43;;;;;;;;;;;12.10;87.30;;;;;;4348588;32;20017;-76
2021/05/19 08:52:13;;;;;;;;;;;12.20;87.50;;;;;;4349069;32;20080;-76
2021/05/19 08:54:43;;;;;;;;;;;12.20;87.50;;;;;;4348322;32;20069;-76
2021/05/19 08:57:11;;;;;;;;;;;12.20;87.50;;;;;;4348620;32;20057;-75
2021/05/19 08:59:41;;;;;;;;;;;12.20;87.50;;;;;;4361962;32;20406;-75
2021/05/19 09:02:12;;;;;;;;;;;12.20;87.70;;;;;;4361365;32;20057;-75
2021/05/19 09:04:40;;;;;;;;;;;12.20;87.80;;;;;;4361505;32;20096;-76
2021/05/19 09:07:09;;;;;;;;;;;12.10;87.80;;;;;;4361454;32;20044;-75
2021/05/19 09:09:38;;;;;;;;;;;12.10;88.00;;;;;;4361810;32;20026;-75
2021/05/19 09:12:10;;;;;;;;;;;12.10;87.90;;;;;;4360918;32;20012;-76
2021/05/19 09:14:42;;;;;;;;;;;12.10;87.90;;;;;;4348041;32;20009;-75
2021/05/19 09:17:20;;;;;;;;;;;12.20;88.20;;;;;;4348434;32;20038;-76
2021/05/19 09:19:48;;;;;;;;;;;12.20;88.20;;;;;;4348403;32;20410;-75
2021/05/19 09:22:26;;;;;;;;;;;12.20;88.70;;;;;;4347879;32;20444;-76
2021/05/19 09:24:53;;;;;;;;;;;12.20;88.60;;;;;;4361123;32;20043;-76
2021/05/19 09:27:28;;;;;;;;;;;12.20;88.20;;;;;;4360408;32;20565;-76
2021/05/19 09:29:56;;;;;;;;;;;12.30;88.20;;;;;;4335916;32;20019;-76
2021/05/19 09:32:23;;;;;;;;;;;12.30;88.20;;;;;;4348309;33;20027;-76
2021/05/19 09:34:53;;;;;;;;;;;12.30;88.20;;;;;;4347794;33;20364;-76
2021/05/19 09:37:21;;;;;;;;;;;12.30;88.50;;;;;;4335883;33;20052;-76
2021/05/19 09:39:55;;;;;;;;;;;12.30;88.10;;;;;;4361691;33;20068;-76
2021/05/19 09:42:27;;;;;;;;;;;12.30;88.00;;;;;;4361490;33;19993;-76
2021/05/19 09:44:57;;;;;;;;;;;12.30;88.00;;;;;;4361437;33;20458;-76
2021/05/19 09:47:38;;;;;;;;;;;12.40;87.90;;;;;;4361235;33;20004;-76
2021/05/19 09:50:08;;;;;;;;;;;12.40;87.80;;;;;;4347543;33;20406;-76
2021/05/19 09:52:36;;;;;;;;;;;12.40;87.80;;;;;;4361408;33;20018;-76
2021/05/19 09:55:11;;;;;;;;;;;12.40;88.10;;;;;;4360937;33;20008;-76
2021/05/19 09:57:54;;;;;;;;;;;12.40;88.10;;;;;;4349679;33;20013;-76
2021/05/19 10:00:25;;;;;;;;;;;12.40;88.20;;;;;;4361247;33;20454;-76
2021/05/19 10:03:00;;;;;;;;;;;12.40;88.30;;;;;;4347292;33;20514;-76
2021/05/19 10:05:43;;;;;;;;;;;12.40;88.30;;;;;;4348009;33;20364;-76
2021/05/19 10:08:11;;;;;;;;;;;12.40;88.20;;;;;;4361291;33;20009;-77
2021/05/19 10:10:41;;;;;;;;;;;12.40;88.10;;;;;;4348254;33;20435;-76
2021/05/19 10:13:11;;;;;;;;;;;12.40;88.10;;;;;;4361227;33;20004;-77
2021/05/19 10:15:42;;;;;;;;;;;12.40;88.10;;;;;;4347502;33;20001;-76
2021/05/19 10:18:10;;;;;;;;;;;12.40;88.10;;;;;;4347916;33;20009;-76
2021/05/19 10:20:45;;;;;;;;;;;12.40;88.10;;;;;;4360745;33;20052;-76
2021/05/19 10:23:22;;;;;;;;;;;12.40;88.10;;;;;;4348784;32;20017;-76
2021/05/19 10:25:49;;;;;;;;;;;12.40;87.90;;;;;;4350430;32;19997;-76
2021/05/19 10:28:17;;;;;;;;;;;12.40;87.80;;;;;;4364109;32;20449;-76
2021/05/19 10:30:55;;;;;;;;;;;12.40;87.80;;;;;;4363622;32;20071;-77
2021/05/19 10:33:37;;;;;;;;;;;12.40;87.90;;;;;;4363922;32;20078;-77
2021/05/19 10:36:37;;;;;;;;;;;12.40;87.80;;;;;;4350515;32;20025;-77
2021/05/19 10:39:07;;;;;;;;;;;12.30;87.80;;;;;;4318506;32;20056;-77
2021/05/19 10:41:38;;;;;;;;;;;12.30;87.80;;;;;;4363526;32;20048;-77
2021/05/19 10:44:10;;;;;;;;;;;12.30;87.90;;;;;;4350512;32;20044;-77
2021/05/19 10:46:51;;;;;;;;;;;12.30;87.80;;;;;;4363570;32;20046;-77
2021/05/19 10:49:24;;;;;;;;;;;12.20;87.70;;;;;;4363290;32;20029;-76
2021/05/19 10:52:05;;;;;;;;;;;12.20;87.70;;;;;;4349951;32;19998;-77
2021/05/19 10:57:38;;;;;;;;;;;12.20;87.70;;;;;;4363607;32;20023;-77
2021/05/19 11:00:11;;;;;;;;;;;12.20;87.80;;;;;;4363447;32;20052;-77
2021/05/19 11:02:54;;;;;;;;;;;12.20;87.80;;;;;;4363062;32;20056;-77
2021/05/19 11:05:24;;;;;;;;;;;12.20;87.80;;;;;;4337670;32;20015;-77
2021/05/19 11:08:11;;;;;;;;;;;12.20;87.80;;;;;;4362940;32;20102;-78
2021/05/19 11:13:20;;;;;;;;;;;12.20;87.70;;;;;;4349715;32;20000;-78
2021/05/19 11:20:59;;;;;;;;;;;12.20;87.30;;;;;;4363366;32;20013;-77
2021/05/19 11:23:27;;;;;;;;;;;12.20;87.30;;;;;;4363179;32;20362;-77
2021/05/19 11:26:12;;;;;;;;;;;12.20;87.20;;;;;;4363065;32;20022;-77
2021/05/19 11:28:40;;;;;;;;;;;12.20;87.20;;;;;;4363140;32;20058;-77
2021/05/19 11:31:11;;;;;;;;;;;12.20;87.00;;;;;;4362687;32;20069;-78
2021/05/19 11:33:52;;;;;;;;;;;12.20;86.90;;;;;;4349907;32;20422;-77
2021/05/19 11:36:31;;;;;;;;;;;12.20;86.80;;;;;;4362425;32;20019;-77
2021/05/19 11:39:20;;;;;;;;;;;12.20;86.90;;;;;;4349598;32;20072;-76
2021/05/19 11:41:51;;;;;;;;;;;12.20;86.80;;;;;;4349604;32;20023;-77
2021/05/19 11:44:33;;;;;;;;;;;12.20;87.00;;;;;;4362781;32;20005;-77
2021/05/19 11:47:02;;;;;;;;;;;12.30;87.20;;;;;;4362536;32;20031;-76
2021/05/19 11:49:32;;;;;;;;;;;12.30;87.80;;;;;;4349245;32;20007;-77
2021/05/19 11:52:02;;;;;;;;;;;12.30;86.90;;;;;;4362337;32;20414;-77
2021/05/19 11:54:41;;;;;;;;;;;12.30;86.80;;;;;;4362472;32;20005;-76
2021/05/19 11:57:11;;;;;;;;;;;12.40;86.90;;;;;;4349372;32;20068;-77
2021/05/19 11:59:43;;;;;;;;;;;12.40;86.70;;;;;;4362678;32;20057;-77
2021/05/19 12:02:20;;;;;;;;;;;12.40;86.60;;;;;;4361996;32;20024;-77
2021/05/19 12:04:48;;;;;;;;;;;12.40;86.60;;;;;;4349277;32;20021;-77
2021/05/19 12:07:20;;;;;;;;;;;12.40;86.70;;;;;;4362442;32;20001;-76
2021/05/19 12:09:52;;;;;;;;;;;12.50;86.70;;;;;;4349068;32;20036;-76
2021/05/19 12:12:19;;;;;;;;;;;12.50;86.90;;;;;;4348875;32;20356;-77
2021/05/19 12:14:54;;;;;;;;;;;12.60;87.00;;;;;;4348520;32;19997;-76
2021/05/19 12:17:44;;;;;;;;;;;12.60;87.00;;;;;;4362366;32;20073;-77
2021/05/19 12:20:21;;;;;;;;;;;12.70;86.90;;;;;;4362388;32;20009;-76
2021/05/19 12:22:53;;;;;;;;;;;12.70;86.60;;;;;;4362300;32;20072;-76
2021/05/19 12:25:26;;;;;;;;;;;12.80;86.50;;;;;;4348524;32;20011;-76
2021/05/19 12:28:14;;;;;;;;;;;12.80;86.50;;;;;;4348850;32;20068;-77
2021/05/19 12:30:57;;;;;;;;;;;12.80;86.50;;;;;;4362233;32;20005;-76
2021/05/19 12:33:36;;;;;;;;;;;12.80;86.40;;;;;;4348842;32;20027;-77
2021/05/19 12:36:06;;;;;;;;;;;12.90;86.50;;;;;;4348523;32;20002;-76
2021/05/19 12:38:46;;;;;;;;;;;12.90;86.40;;;;;;4361839;32;20025;-76
2021/05/19 12:41:32;;;;;;;;;;;12.90;86.40;;;;;;4361671;32;20373;-76
2021/05/19 12:44:01;;;;;;;;;;;12.90;86.30;;;;;;4348130;32;20009;-77
2021/05/19 12:46:28;;;;;;;;;;;12.90;86.10;;;;;;4361529;32;20005;-76
2021/05/19 12:49:05;;;;;;;;;;;12.90;86.20;;;;;;4348403;32;20052;-77
2021/05/19 12:51:55;;;;;;;;;;;13.00;86.20;;;;;;4348787;32;20023;-77
2021/05/19 12:54:28;;;;;;;;;;;13.00;86.10;;;;;;4348059;32;20033;-77
2021/05/19 12:57:09;;;;;;;;;;;13.00;85.90;;;;;;4348658;32;20027;-77
2021/05/19 12:59:55;;;;;;;;;;;13.00;85.90;;;;;;4361500;32;20019;-77
2021/05/19 13:02:24;;;;;;;;;;;13.00;85.80;;;;;;4347787;32;20027;-76
2021/05/19 13:04:58;;;;;;;;;;;13.00;85.70;;;;;;4347810;32;20052;-76
2021/05/19 13:07:26;;;;;;;;;;;13.10;85.70;;;;;;4361692;32;20008;-77
2021/05/19 13:09:57;;;;;;;;;;;13.10;85.70;;;;;;4348044;32;20049;-77
2021/05/19 13:12:30;;;;;;;;;;;13.10;85.60;;;;;;4336084;32;20112;-77
2021/05/19 13:14:58;;;;;;;;;;;13.10;85.60;;;;;;4361724;32;20060;-77
2021/05/19 13:20:09;;;;;;;;;;;13.10;85.40;;;;;;4361840;32;20011;-77
2021/05/19 13:22:37;;;;;;;;;;;13.10;85.40;;;;;;4361647;32;20060;-77
2021/05/19 13:25:20;;;;;;;;;;;13.10;85.40;;;;;;4348262;32;20500;-76
2021/05/19 13:27:47;;;;;;;;;;;13.20;85.50;;;;;;4347744;32;20046;-77
2021/05/19 13:30:15;;;;;;;;;;;13.20;85.40;;;;;;4361178;32;20128;-76
2021/05/19 13:32:59;;;;;;;;;;;13.20;85.10;;;;;;4348259;33;20398;-76
2021/05/19 13:38:23;;;;;;;;;;;13.20;85.20;;;;;;4361719;33;20061;-77
2021/05/19 13:40:50;;;;;;;;;;;13.30;85.00;;;;;;4348021;33;20083;-76
2021/05/19 13:43:23;;;;;;;;;;;13.30;84.90;;;;;;4361532;33;20015;-76
2021/05/19 13:45:55;;;;;;;;;;;13.30;84.90;;;;;;4361328;33;20352;-76
2021/05/19 13:48:22;;;;;;;;;;;13.40;84.80;;;;;;4347914;33;20039;-76
2021/05/19 13:50:52;;;;;;;;;;;13.40;85.80;;;;;;4361450;33;20084;-76
2021/05/19 13:53:20;;;;;;;;;;;13.50;84.80;;;;;;4361271;33;20013;-76
2021/05/19 13:55:50;;;;;;;;;;;13.50;84.50;;;;;;4347658;33;20440;-76
2021/05/19 13:58:20;;;;;;;;;;;13.50;84.40;;;;;;4348696;32;20023;-76
2021/05/19 14:00:49;;;;;;;;;;;13.50;84.20;;;;;;4350820;32;20013;-76
2021/05/19 14:03:16;;;;;;;;;;;13.50;84.00;;;;;;4363720;32;20013;-76
2021/05/19 14:05:45;;;;;;;;;;;13.60;84.00;;;;;;4351175;32;20056;-76
2021/05/19 14:08:18;;;;;;;;;;;13.60;84.00;;;;;;4350300;32;20057;-75
2021/05/19 14:10:53;;;;;;;;;;;13.60;84.30;;;;;;4350746;32;20107;-74
2021/05/19 14:13:24;;;;;;;;;;;13.50;84.90;;;;;;4350902;32;20016;-75
2021/05/19 14:18:51;;;;;;;;;;;13.40;85.50;;;;;;4350640;32;20015;-75
2021/05/19 14:29:30;;;;;;;;;;;13.40;86.60;;;;;;4363732;32;20075;-76
2021/05/19 14:32:03;;;;;;;;;;;13.40;86.60;;;;;;4363925;32;20026;-76
2021/05/19 14:34:33;;;;;;;;;;;13.40;86.80;;;;;;4363826;32;20012;-76
2021/05/19 15:01:18;;;;;;;;;;;13.50;87.20;;;;;;4349972;32;19993;-76
2021/05/19 15:03:47;;;;;;;;;;;13.50;87.20;;;;;;4363191;32;20474;-76
2021/05/19 15:06:17;;;;;;;;;;;13.50;87.30;;;;;;4363530;32;20012;-76
2021/05/19 15:08:45;;;;;;;;;;;13.50;87.30;;;;;;4350116;32;20072;-76
2021/05/19 15:11:12;;;;;;;;;;;13.50;87.40;;;;;;4362140;32;20008;-76
2021/05/19 15:13:41;;;;;;;;;;;13.50;87.50;;;;;;4363254;32;20013;-76
2021/05/19 15:16:09;;;;;;;;;;;13.50;87.40;;;;;;4349682;32;20011;-76
2021/05/19 15:18:39;;;;;;;;;;;13.60;87.40;;;;;;4349896;32;20005;-76
2021/05/19 15:21:06;;;;;;;;;;;13.50;87.30;;;;;;4363296;32;20112;-76
2021/05/19 15:23:34;;;;;;;;;;;13.60;87.50;;;;;;4362331;32;20004;-76
2021/05/19 15:26:04;;;;;;;;;;;13.60;87.40;;;;;;4363059;32;20432;-76
2021/05/19 15:28:33;;;;;;;;;;;13.60;87.40;;;;;;4349242;32;20408;-76
2021/05/19 15:31:01;;;;;;;;;;;13.70;87.30;;;;;;4349917;32;20021;-76
2021/05/19 15:33:28;;;;;;;;;;;13.70;87.30;;;;;;4349589;32;20023;-76